Warnock, OH

2:43 PM EST on January 30, 2015 (GMT -0500)
Clever | Change Station
CLOSE
Current Station
Airport
Location: New Philadelphia,
Elevation: 892 ft
Nearby Weather Stations
Active Advisory: Winter Storm Watch Active Notice: Public Information Statement

Elev 892 ft 40.47 °N, 81.42 °W | Updated 40 minutes ago

Overcast
Overcast
19 °F
Feels Like 5 °F
N
15
Wind Variable Wind from NNW
Gusts 22 mph

Today
High -- | Low -- °F
--% Chance of Precip.
Yesterday
High -- | Low -- °F
Precip. -- in
7:34 AM 5:40 PM
Waxing Gibbous, 84% visible
Pressure 30.37 in
Visibility 7.0 miles
Clouds Mostly Cloudy 2600 ft
Overcast 3300 ft
Windchill 5 °F
Dew Point 8 °F
Humidity 62%
Rainfall 0.04 in
Snow Depth Not available.
UV 1 out of 12
Pollen .10 out of 12
Air Quality Not available.
Flu Activity Not available.
SPECI KPHD 301903Z AUTO 33013G19KT 7SM -SN BKN026 OVC033 M07/M13 A3037 RMK AO2 P0000 T10721133

More Conditions Fewer Conditions

Pressure 30.37 in
Visibility 7.0 miles
Clouds Mostly Cloudy 2600 ft
Overcast 3300 ft
Windchill 5 °F
Dew Point 8 °F
Humidity 62%
Rainfall 0.04 in
Snow Depth Not available.
UV 1 out of 12
Pollen .10 out of 12
Air Quality Not available.
Flu Activity Not available.
SPECI KPHD 301903Z AUTO 33013G19KT 7SM -SN BKN026 OVC033 M07/M13 A3037 RMK AO2 P0000 T10721133

More Conditions Fewer Conditions

10-Day Weather Forecast

Almanac

Astronomy

Jan. 30, 2015 Rise Set
Actual Time
Civil Twilight
Nautical Twilight
Astronomical Twilight
Moon
Length of Visible Light
Length of Day
Tomorrow will be .
, % of the Moon is Illuminated

Today's Extremes

State Highs State Lows

Community

WunderPhotos

Upload Photos

1,791,879 photos uploaded!

WunderBlogs® & News

Nearby

Air Quality

  Air Quality AQ Index Pollutant
Not available.

Snow Depth

Station Depth Elevation

Earthquake Activity

City Distance Mag. Time & Date
Minimum magnitude displayed is 2.5.

Coastal Water Temperatures

Place Temperature

Nearby Weather Stations